createdAt,value
2023-03-19T00:00:21.432Z,96.07
2023-03-19T00:02:23.768Z,95.65
2023-03-19T00:04:27.503Z,95.75
2023-03-19T00:06:28.928Z,96.35
2023-03-19T00:08:30.436Z,96.57
2023-03-19T00:10:32.005Z,96.80
2023-03-19T00:12:36.677Z,96.17
2023-03-19T00:14:38.634Z,95.97
2023-03-19T00:16:40.317Z,96.34
2023-03-19T00:18:41.892Z,96.60
2023-03-19T00:20:45.844Z,96.10
2023-03-19T00:22:47.623Z,96.04
2023-03-19T00:24:49.224Z,96.29
2023-03-19T00:26:51.327Z,96.33
2023-03-19T00:28:54.388Z,96.48
2023-03-19T00:30:56.427Z,96.40
2023-03-19T00:32:57.988Z,96.67
2023-03-19T00:34:59.524Z,95.76
2023-03-19T00:37:01.324Z,96.31
2023-03-19T00:39:05.724Z,96.00
2023-03-19T00:41:07.638Z,95.83
2023-03-19T00:43:09.524Z,96.21
2023-03-19T00:45:12.909Z,95.70
2023-03-19T00:47:14.766Z,96.36
2023-03-19T00:49:16.236Z,95.90
2023-03-19T00:51:17.792Z,96.09
2023-03-19T00:53:21.811Z,96.19
2023-03-19T00:55:24.411Z,96.41
2023-03-19T00:57:27.088Z,96.56
2023-03-19T00:59:29.098Z,96.50
2023-03-19T01:01:30.681Z,96.10
2023-03-19T01:03:33.399Z,96.58
2023-03-19T01:05:36.200Z,96.49
2023-03-19T01:07:40.306Z,96.30
2023-03-19T01:09:41.897Z,96.49
2023-03-19T01:11:43.357Z,96.80
2023-03-19T01:13:45.709Z,96.54
2023-03-19T01:15:47.168Z,97.05
2023-03-19T01:17:48.612Z,96.46
2023-03-19T01:19:50.077Z,96.62
2023-03-19T01:21:51.625Z,96.64
2023-03-19T01:23:53.272Z,96.59
2023-03-19T01:25:54.794Z,96.70
2023-03-19T01:27:56.364Z,96.43
2023-03-19T01:29:57.808Z,96.54
2023-03-19T01:31:59.277Z,96.36
2023-03-19T01:34:01.734Z,96.57
2023-03-19T01:36:04.867Z,96.38
2023-03-19T01:38:06.394Z,96.89
2023-03-19T01:40:13.189Z,96.42
2023-03-19T01:42:15.002Z,96.24
2023-03-19T01:44:27.709Z,96.13
2023-03-19T01:46:29.176Z,96.74
2023-03-19T01:48:43.595Z,96.00
2023-03-19T01:50:46.178Z,96.21
2023-03-19T01:52:47.740Z,95.99
2023-03-19T01:54:49.402Z,96.37
2023-03-19T01:57:00.258Z,96.13
2023-03-19T01:59:11.036Z,95.84
2023-03-19T02:01:14.210Z,95.61
2023-03-19T02:03:16.373Z,96.02
2023-03-19T02:05:25.560Z,95.80
2023-03-19T02:07:30.906Z,95.95
2023-03-19T02:09:32.746Z,95.58
2023-03-19T02:11:34.250Z,95.11
2023-03-19T02:13:36.591Z,95.32
2023-03-19T02:15:38.358Z,95.43
2023-03-19T02:17:41.630Z,95.40
2023-03-19T02:20:01.947Z,95.23
2023-03-19T02:22:05.019Z,95.03
2023-03-19T02:24:17.378Z,95.25
2023-03-19T02:26:21.668Z,95.30
2023-03-19T02:28:24.279Z,95.66
2023-03-19T02:30:27.930Z,94.98
2023-03-19T02:32:29.392Z,95.09
2023-03-19T02:34:34.969Z,94.84
2023-03-19T02:36:44.488Z,94.92
2023-03-19T02:38:46.830Z,94.60
2023-03-19T02:40:54.092Z,94.93
2023-03-19T02:42:55.543Z,95.27
2023-03-19T02:44:57.820Z,95.24
2023-03-19T02:46:59.673Z,95.29
2023-03-19T02:49:01.614Z,95.53
2023-03-19T02:51:03.894Z,95.15
2023-03-19T02:53:05.653Z,94.96
2023-03-19T02:55:07.963Z,95.02
2023-03-19T02:57:09.485Z,94.67
2023-03-19T02:59:10.966Z,94.97
2023-03-19T03:01:12.498Z,94.79
2023-03-19T03:03:14.152Z,95.29
2023-03-19T03:05:15.590Z,94.67
2023-03-19T03:07:17.285Z,94.81
2023-03-19T03:09:19.630Z,94.88
2023-03-19T03:11:21.077Z,95.10
2023-03-19T03:13:22.618Z,94.66
2023-03-19T03:15:24.470Z,95.39
2023-03-19T03:17:25.949Z,95.80
2023-03-19T03:19:27.766Z,95.63
2023-03-19T03:21:29.592Z,95.93
2023-03-19T03:23:31.117Z,95.37
2023-03-19T03:25:32.620Z,95.95
2023-03-19T03:27:34.116Z,95.75
2023-03-19T03:29:35.587Z,95.69
2023-03-19T03:31:37.352Z,95.09
2023-03-19T03:33:39.180Z,95.12
2023-03-19T03:35:40.719Z,94.55
2023-03-19T03:37:42.288Z,94.88
2023-03-19T03:39:43.813Z,95.20
2023-03-19T03:41:45.800Z,94.86
2023-03-19T03:43:47.816Z,94.84
2023-03-19T03:45:49.800Z,94.85
2023-03-19T03:47:51.342Z,94.55
2023-03-19T03:49:52.853Z,95.09
2023-03-19T03:51:54.341Z,95.14
2023-03-19T03:53:55.823Z,94.58
2023-03-19T03:55:57.400Z,94.90
2023-03-19T03:57:59.130Z,94.37
2023-03-19T04:00:00.712Z,94.61
2023-03-19T04:02:02.325Z,94.17
2023-03-19T04:04:03.849Z,95.14
2023-03-19T04:06:06.075Z,94.46
2023-03-19T04:08:08.671Z,94.33
2023-03-19T04:10:11.922Z,94.64
2023-03-19T04:12:14.061Z,94.23
2023-03-19T04:14:15.552Z,94.60
2023-03-19T04:16:17.068Z,94.92
2023-03-19T04:18:18.604Z,94.45
2023-03-19T04:20:20.144Z,94.69
2023-03-19T04:22:21.611Z,94.92
2023-03-19T04:24:23.254Z,94.59
2023-03-19T04:26:24.729Z,94.97
2023-03-19T04:28:26.447Z,95.40
2023-03-19T04:30:28.164Z,94.90
2023-03-19T04:32:29.704Z,95.33
2023-03-19T04:34:31.846Z,94.86
2023-03-19T04:36:33.320Z,95.26
2023-03-19T04:38:34.806Z,95.06
2023-03-19T04:40:36.618Z,95.15
2023-03-19T04:42:38.137Z,95.08
2023-03-19T04:44:39.612Z,95.55
2023-03-19T04:46:41.877Z,95.74
2023-03-19T04:48:43.448Z,95.49
2023-03-19T04:50:47.107Z,95.40
2023-03-19T04:52:49.672Z,95.66
2023-03-19T04:54:51.136Z,96.00
2023-03-19T04:56:53.238Z,96.06
2023-03-19T04:58:54.779Z,96.11
2023-03-19T05:00:56.257Z,95.83
2023-03-19T05:02:57.999Z,96.16
2023-03-19T05:04:59.448Z,96.56
2023-03-19T05:07:00.982Z,96.42
2023-03-19T05:09:03.887Z,96.28
2023-03-19T05:11:05.535Z,96.68
2023-03-19T05:13:07.245Z,96.97
2023-03-19T05:15:09.502Z,96.71
2023-03-19T05:17:11.348Z,96.51
2023-03-19T05:19:13.044Z,96.91
2023-03-19T05:21:14.880Z,97.33
2023-03-19T05:23:17.855Z,96.74
2023-03-19T05:25:19.532Z,97.40
2023-03-19T05:27:21.117Z,96.99
2023-03-19T05:29:23.289Z,96.71
2023-03-19T05:31:24.918Z,97.39
2023-03-19T05:33:26.844Z,97.04
2023-03-19T05:35:29.783Z,97.15
2023-03-19T05:37:31.844Z,96.87
2023-03-19T05:39:33.528Z,97.32
2023-03-19T05:41:35.064Z,97.06
2023-03-19T05:43:37.137Z,96.82
2023-03-19T05:45:38.990Z,97.60
2023-03-19T05:47:40.576Z,97.41
2023-03-19T05:49:42.020Z,97.40
2023-03-19T05:51:43.508Z,97.28
2023-03-19T05:53:46.012Z,97.06
2023-03-19T05:55:47.465Z,97.21
2023-03-19T05:57:49.029Z,97.08
2023-03-19T05:59:51.091Z,96.07
2023-03-19T06:01:52.622Z,96.45
2023-03-19T06:03:54.163Z,96.19
2023-03-19T06:05:55.830Z,96.34
2023-03-19T06:07:57.284Z,96.47
2023-03-19T06:09:58.733Z,96.04
2023-03-19T06:12:00.439Z,96.34
2023-03-19T06:14:01.915Z,96.42
2023-03-19T06:16:03.573Z,96.47
2023-03-19T06:18:05.235Z,96.37
2023-03-19T06:20:07.185Z,96.67
2023-03-19T06:22:08.991Z,96.25
2023-03-19T06:24:10.542Z,96.92
2023-03-19T06:26:12.387Z,97.41
2023-03-19T06:28:13.995Z,97.49
2023-03-19T06:30:15.774Z,97.71
2023-03-19T06:32:17.297Z,97.93
2023-03-19T06:34:18.993Z,98.07
2023-03-19T06:36:20.515Z,98.27
2023-03-19T06:38:22.483Z,98.62
2023-03-19T06:40:24.495Z,99.51
2023-03-19T06:42:26.118Z,98.86
2023-03-19T06:44:27.691Z,99.63
2023-03-19T06:46:29.303Z,99.68
2023-03-19T06:48:31.184Z,100.00
2023-03-19T06:50:32.918Z,100.00
2023-03-19T06:52:34.517Z,100.00
2023-03-19T06:54:38.358Z,100.00
2023-03-19T06:56:40.628Z,100.00
2023-03-19T06:58:42.156Z,100.00
2023-03-19T07:00:44.128Z,100.00
2023-03-19T07:02:45.641Z,100.00
2023-03-19T07:04:47.118Z,100.00
2023-03-19T07:06:48.642Z,100.00
2023-03-19T07:08:50.131Z,100.00
2023-03-19T07:10:51.668Z,100.00
2023-03-19T07:12:53.216Z,100.00
2023-03-19T07:14:58.497Z,100.00
2023-03-19T07:16:59.970Z,100.00
2023-03-19T07:19:01.441Z,100.00
2023-03-19T07:21:03.454Z,100.00
2023-03-19T07:23:04.906Z,100.00
2023-03-19T07:25:07.267Z,100.00
2023-03-19T07:27:08.829Z,100.00
2023-03-19T07:29:11.175Z,100.00
2023-03-19T07:31:13.612Z,100.00
2023-03-19T07:33:15.080Z,100.00
2023-03-19T07:35:16.868Z,100.00
2023-03-19T07:37:20.171Z,100.00
2023-03-19T07:39:23.416Z,100.00
2023-03-19T07:41:24.873Z,100.00
2023-03-19T07:43:26.458Z,100.00
2023-03-19T07:45:27.937Z,100.00
2023-03-19T07:47:29.836Z,100.00
2023-03-19T07:49:31.491Z,100.00
2023-03-19T07:51:33.468Z,100.00
2023-03-19T07:53:34.948Z,100.00
2023-03-19T07:55:38.431Z,100.00
2023-03-19T07:57:40.426Z,100.00
2023-03-19T07:59:42.201Z,100.00
2023-03-19T08:01:43.859Z,100.00
2023-03-19T08:03:45.391Z,100.00
2023-03-19T08:05:50.441Z,100.00
2023-03-19T08:07:52.358Z,100.00
2023-03-19T08:09:53.900Z,100.00
2023-03-19T08:11:55.806Z,100.00
2023-03-19T08:13:57.286Z,100.00
2023-03-19T08:15:58.801Z,100.00
2023-03-19T08:18:01.755Z,100.00
2023-03-19T08:20:04.339Z,100.00
2023-03-19T08:22:05.966Z,100.00
2023-03-19T08:24:07.434Z,100.00
2023-03-19T08:26:08.915Z,100.00
2023-03-19T08:28:10.536Z,100.00
2023-03-19T08:30:12.653Z,100.00
2023-03-19T08:32:14.226Z,100.00
2023-03-19T08:34:15.740Z,100.00
2023-03-19T08:36:17.301Z,100.00
2023-03-19T08:38:20.003Z,100.00
2023-03-19T08:40:22.122Z,100.00
2023-03-19T08:42:23.867Z,100.00
2023-03-19T08:44:25.362Z,100.00
2023-03-19T08:46:27.768Z,99.80
2023-03-19T08:48:29.485Z,99.25
2023-03-19T08:50:30.991Z,98.58
2023-03-19T08:52:32.938Z,97.53
2023-03-19T08:54:34.630Z,96.82
2023-03-19T08:56:36.066Z,96.96
2023-03-19T08:58:37.640Z,96.45
2023-03-19T09:00:39.086Z,96.23
2023-03-19T09:02:40.764Z,96.08
2023-03-19T09:04:43.325Z,95.53
2023-03-19T09:06:45.224Z,95.33
2023-03-19T09:08:46.784Z,94.97
2023-03-19T09:10:49.855Z,94.67
2023-03-19T09:12:52.862Z,93.81
2023-03-19T09:14:54.316Z,93.49
2023-03-19T09:16:55.854Z,92.46
2023-03-19T09:18:59.329Z,91.74
2023-03-19T09:21:01.663Z,91.21
2023-03-19T09:23:03.492Z,90.55
2023-03-19T09:25:05.434Z,88.64
2023-03-19T09:27:06.906Z,87.34
2023-03-19T09:29:09.086Z,84.44
2023-03-19T09:31:11.572Z,84.28
2023-03-19T09:33:13.281Z,83.58
2023-03-19T09:35:14.907Z,82.39
2023-03-19T09:37:16.560Z,82.00
2023-03-19T09:39:18.067Z,81.36
2023-03-19T09:41:32.473Z,81.38
2023-03-19T09:44:00.642Z,80.64
2023-03-19T09:46:06.531Z,80.77
2023-03-19T09:48:16.921Z,79.83
2023-03-19T09:50:21.313Z,79.43
2023-03-19T09:52:47.130Z,79.62
2023-03-19T09:54:52.815Z,78.98
2023-03-19T09:56:55.477Z,78.82
2023-03-19T09:58:57.004Z,77.54
2023-03-19T10:01:00.972Z,77.69
2023-03-19T10:03:34.838Z,76.87
2023-03-19T10:05:53.353Z,77.00
2023-03-19T10:07:57.801Z,77.26
2023-03-19T10:10:08.327Z,76.54
2023-03-19T10:12:09.773Z,75.51
2023-03-19T10:14:36.126Z,75.69
2023-03-19T10:16:41.167Z,76.00
2023-03-19T10:18:48.373Z,74.21
2023-03-19T10:20:56.737Z,73.96
2023-03-19T10:23:37.517Z,74.09
2023-03-19T10:25:41.627Z,73.41
2023-03-19T10:27:46.624Z,74.17
2023-03-19T10:29:48.439Z,72.80
2023-03-19T10:32:18.655Z,72.05
2023-03-19T10:34:29.502Z,73.09
2023-03-19T10:36:35.701Z,71.93
2023-03-19T10:38:44.712Z,70.71
2023-03-19T10:41:01.877Z,69.79
2023-03-19T10:43:24.744Z,70.04
2023-03-19T10:45:31.902Z,70.65
2023-03-19T10:47:39.487Z,70.60
2023-03-19T10:49:42.066Z,70.95
2023-03-19T10:51:46.258Z,70.71
2023-03-19T10:53:47.876Z,69.93
2023-03-19T10:56:00.216Z,70.84
2023-03-19T10:58:05.751Z,72.14
2023-03-19T11:00:15.510Z,72.31
2023-03-19T11:02:20.719Z,71.68
2023-03-19T11:04:23.537Z,72.35
2023-03-19T11:06:35.449Z,72.94
2023-03-19T11:08:38.027Z,73.39
2023-03-19T11:10:46.584Z,74.32
2023-03-19T11:12:54.694Z,73.41
2023-03-19T11:14:59.980Z,73.15
2023-03-19T11:17:36.719Z,73.04
2023-03-19T11:19:42.646Z,72.13
2023-03-19T11:21:59.002Z,72.51
2023-03-19T11:24:03.527Z,72.66
2023-03-19T11:26:05.173Z,72.62
2023-03-19T11:28:15.648Z,72.24
2023-03-19T11:30:19.561Z,71.48
2023-03-19T11:32:33.692Z,71.12
2023-03-19T11:34:54.093Z,71.50
2023-03-19T11:37:01.790Z,72.52
2023-03-19T11:39:12.340Z,73.48
2023-03-19T11:41:24.798Z,73.50
2023-03-19T11:43:48.950Z,74.55
2023-03-19T11:45:59.494Z,74.34
2023-03-19T11:48:31.569Z,73.94
2023-03-19T11:50:50.022Z,74.34
2023-03-19T11:53:14.633Z,73.98
2023-03-19T11:55:39.202Z,74.56
2023-03-19T11:58:18.636Z,74.89
2023-03-19T12:00:31.359Z,75.23
2023-03-19T12:03:00.517Z,76.48
2023-03-19T12:05:21.085Z,77.65
2023-03-19T12:07:32.811Z,78.50
2023-03-19T12:10:25.424Z,79.68
2023-03-19T12:12:39.484Z,81.73
2023-03-19T12:14:59.433Z,82.62
2023-03-19T12:17:07.259Z,84.25
2023-03-19T12:19:36.590Z,84.30
2023-03-19T12:22:22.415Z,84.72
2023-03-19T12:24:48.719Z,85.57
2023-03-19T12:27:36.511Z,85.03
2023-03-19T12:29:59.662Z,84.40
2023-03-19T12:32:16.641Z,84.73
2023-03-19T12:34:27.139Z,83.03
2023-03-19T12:36:33.900Z,80.54
2023-03-19T12:38:45.326Z,78.08
2023-03-19T12:40:49.375Z,77.44
2023-03-19T12:42:51.945Z,77.90
2023-03-19T12:44:57.078Z,77.88
2023-03-19T12:47:09.694Z,76.58
2023-03-19T12:49:17.756Z,75.92
2023-03-19T12:51:23.079Z,74.68
2023-03-19T12:53:54.241Z,75.17
2023-03-19T12:56:01.188Z,75.79
2023-03-19T12:58:14.664Z,74.41
2023-03-19T13:00:25.246Z,74.38
2023-03-19T13:02:59.034Z,74.10
2023-03-19T13:05:14.711Z,71.97
2023-03-19T13:07:36.134Z,71.85
2023-03-19T13:10:00.746Z,71.93
2023-03-19T13:12:10.694Z,72.03
2023-03-19T13:14:26.752Z,72.48
2023-03-19T13:16:45.350Z,71.66
2023-03-19T13:18:58.115Z,72.09
2023-03-19T13:21:32.407Z,70.82
2023-03-19T13:23:38.410Z,69.59
2023-03-19T13:25:48.171Z,68.98
2023-03-19T13:27:54.644Z,68.70
2023-03-19T13:30:12.189Z,68.59
2023-03-19T13:32:35.839Z,68.38
2023-03-19T13:34:38.344Z,66.87
2023-03-19T13:36:40.890Z,67.87
2023-03-19T13:38:50.628Z,66.05
2023-03-19T13:40:53.172Z,62.28
2023-03-19T13:42:57.619Z,61.64
2023-03-19T13:45:38.233Z,60.52
2023-03-19T13:47:43.294Z,61.23
2023-03-19T13:50:08.785Z,62.68
2023-03-19T13:52:10.479Z,61.25
2023-03-19T13:54:12.666Z,61.37
2023-03-19T13:56:29.066Z,60.90
2023-03-19T13:58:54.063Z,60.74
2023-03-19T14:00:59.614Z,61.10
2023-03-19T14:03:01.681Z,62.42
2023-03-19T14:05:19.038Z,62.72
2023-03-19T14:07:30.344Z,62.66
2023-03-19T14:09:38.876Z,62.35
2023-03-19T14:11:40.390Z,61.51
2023-03-19T14:13:47.591Z,62.47
2023-03-19T14:15:51.238Z,62.47
2023-03-19T14:18:02.378Z,63.60
2023-03-19T14:20:13.195Z,63.89
2023-03-19T14:22:42.634Z,64.68
2023-03-19T14:24:58.033Z,65.40
2023-03-19T14:27:12.118Z,64.80
2023-03-19T14:29:16.963Z,63.37
2023-03-19T14:31:23.714Z,62.40
2023-03-19T14:33:29.484Z,62.25
2023-03-19T14:35:36.619Z,60.81
2023-03-19T14:37:38.044Z,59.43
2023-03-19T14:39:44.031Z,60.52
2023-03-19T14:41:50.931Z,60.62
2023-03-19T14:44:16.296Z,61.25
2023-03-19T14:46:40.775Z,60.93
2023-03-19T14:49:13.054Z,62.38
2023-03-19T14:51:26.443Z,60.05
2023-03-19T14:53:37.916Z,58.90
2023-03-19T14:55:39.433Z,57.36
2023-03-19T14:57:42.072Z,57.02
2023-03-19T14:59:43.664Z,57.10
2023-03-19T15:01:50.520Z,57.55
2023-03-19T15:03:56.439Z,56.60
2023-03-19T15:06:01.369Z,57.03
2023-03-19T15:08:05.850Z,55.35
2023-03-19T15:10:18.932Z,54.50
2023-03-19T15:12:20.329Z,55.66
2023-03-19T15:14:34.474Z,54.54
2023-03-19T15:17:06.037Z,55.98
2023-03-19T15:19:11.438Z,57.02
2023-03-19T15:21:13.092Z,57.12
2023-03-19T15:23:26.787Z,57.76
2023-03-19T15:25:29.130Z,56.98
2023-03-19T15:27:30.794Z,56.50
2023-03-19T15:29:33.410Z,57.34
2023-03-19T15:31:51.590Z,57.89
2023-03-19T15:33:55.305Z,59.16
2023-03-19T15:36:02.784Z,62.09
2023-03-19T15:38:10.974Z,59.63
2023-03-19T15:40:16.175Z,60.39
2023-03-19T15:42:21.610Z,60.93
2023-03-19T15:44:32.730Z,62.95
2023-03-19T15:46:38.867Z,60.82
2023-03-19T15:49:11.267Z,59.34
2023-03-19T15:51:14.912Z,58.94
2023-03-19T15:53:22.596Z,58.24
2023-03-19T15:55:26.645Z,58.04
2023-03-19T15:57:28.663Z,58.49
2023-03-19T15:59:31.651Z,57.50
2023-03-19T16:01:34.367Z,57.75
2023-03-19T16:03:42.143Z,59.41
2023-03-19T16:05:43.840Z,57.96
2023-03-19T16:07:50.809Z,62.29
2023-03-19T16:09:52.789Z,58.51
2023-03-19T16:11:55.076Z,57.70
2023-03-19T16:13:58.742Z,59.38
2023-03-19T16:16:05.128Z,57.52
2023-03-19T16:18:22.285Z,58.20
2023-03-19T16:20:23.849Z,58.09
2023-03-19T16:22:30.721Z,58.11
2023-03-19T16:24:37.462Z,57.61
2023-03-19T16:26:44.422Z,59.38
2023-03-19T16:29:25.488Z,59.22
2023-03-19T16:31:32.017Z,58.70
2023-03-19T16:33:33.735Z,59.20
2023-03-19T16:35:36.721Z,63.60
2023-03-19T16:37:41.193Z,62.04
2023-03-19T16:39:55.148Z,60.01
2023-03-19T16:42:08.859Z,61.47
2023-03-19T16:44:31.386Z,60.89
2023-03-19T16:46:33.189Z,60.94
2023-03-19T16:48:34.726Z,62.31
2023-03-19T16:50:38.787Z,62.62
2023-03-19T16:52:41.290Z,71.66
2023-03-19T16:54:43.743Z,65.49
2023-03-19T16:56:45.320Z,64.39
2023-03-19T16:58:48.197Z,63.67
2023-03-19T17:00:49.716Z,64.20
2023-03-19T17:02:52.722Z,63.77
2023-03-19T17:04:54.267Z,63.95
2023-03-19T17:06:56.046Z,63.92
2023-03-19T17:08:57.539Z,65.88
2023-03-19T17:10:59.022Z,64.43
2023-03-19T17:13:00.873Z,64.41
2023-03-19T17:15:02.421Z,66.89
2023-03-19T17:17:03.891Z,65.38
2023-03-19T17:19:16.110Z,65.61
2023-03-19T17:21:23.095Z,68.06
2023-03-19T17:23:27.008Z,67.57
2023-03-19T17:25:28.712Z,68.10
2023-03-19T17:27:32.452Z,67.10
2023-03-19T17:29:35.733Z,68.02
2023-03-19T17:31:37.330Z,73.53
2023-03-19T17:33:38.820Z,75.74
2023-03-19T17:35:40.420Z,77.84
2023-03-19T17:37:42.209Z,78.84
2023-03-19T17:39:45.704Z,80.02
2023-03-19T17:41:47.188Z,81.49
2023-03-19T17:43:48.726Z,82.17
2023-03-19T17:45:50.574Z,82.73
2023-03-19T17:47:56.285Z,83.68
2023-03-19T17:49:57.904Z,84.23
2023-03-19T17:52:00.397Z,84.96
2023-03-19T17:54:01.920Z,85.09
2023-03-19T17:56:03.890Z,86.06
2023-03-19T17:58:06.812Z,86.06
2023-03-19T18:00:09.863Z,86.73
2023-03-19T18:02:32.177Z,87.06
2023-03-19T18:04:33.745Z,87.66
2023-03-19T18:06:40.045Z,88.26
2023-03-19T18:08:41.564Z,88.34
2023-03-19T18:10:43.602Z,88.85
2023-03-19T18:12:45.276Z,88.90
2023-03-19T18:14:46.761Z,89.40
2023-03-19T18:16:48.488Z,89.45
2023-03-19T18:18:51.543Z,89.80
2023-03-19T18:20:53.154Z,89.79
2023-03-19T18:22:54.713Z,89.94
2023-03-19T18:24:57.136Z,90.19
2023-03-19T18:26:58.580Z,90.50
2023-03-19T18:29:00.059Z,90.51
2023-03-19T18:31:01.742Z,91.05
2023-03-19T18:33:06.771Z,91.11
2023-03-19T18:35:17.985Z,91.13
2023-03-19T18:37:19.849Z,91.35
2023-03-19T18:39:21.385Z,91.58
2023-03-19T18:41:25.340Z,91.63
2023-03-19T18:43:26.889Z,91.88
2023-03-19T18:45:30.662Z,92.25
2023-03-19T18:47:32.317Z,92.45
2023-03-19T18:49:33.797Z,92.53
2023-03-19T18:51:35.424Z,92.24
2023-03-19T18:53:37.043Z,92.46
2023-03-19T18:55:38.610Z,93.08
2023-03-19T18:57:52.559Z,92.70
2023-03-19T18:59:54.903Z,92.85
2023-03-19T19:02:17.156Z,92.82
2023-03-19T19:04:18.717Z,93.30
2023-03-19T19:06:36.591Z,93.08
2023-03-19T19:08:47.549Z,93.44
2023-03-19T19:10:53.329Z,93.87
2023-03-19T19:12:56.199Z,93.87
2023-03-19T19:15:05.105Z,93.55
2023-03-19T19:17:10.080Z,93.80
2023-03-19T19:19:17.615Z,93.87
2023-03-19T19:21:19.433Z,93.87
2023-03-19T19:23:22.148Z,94.02
2023-03-19T19:25:28.789Z,94.05
2023-03-19T19:27:30.976Z,93.51
2023-03-19T19:29:32.548Z,93.56
2023-03-19T19:31:35.823Z,94.43
2023-03-19T19:33:37.495Z,93.77
2023-03-19T19:35:38.959Z,93.18
2023-03-19T19:37:40.639Z,93.37
2023-03-19T19:39:42.230Z,93.52
2023-03-19T19:41:43.873Z,94.29
2023-03-19T19:43:47.397Z,93.84
2023-03-19T19:45:51.433Z,94.49
2023-03-19T19:47:53.005Z,93.96
2023-03-19T19:49:54.472Z,92.84
2023-03-19T19:51:56.147Z,92.65
2023-03-19T19:53:57.612Z,92.92
2023-03-19T19:55:59.163Z,93.34
2023-03-19T19:58:01.661Z,92.36
2023-03-19T20:00:04.210Z,92.74
2023-03-19T20:02:21.600Z,93.24
2023-03-19T20:04:23.143Z,93.14
2023-03-19T20:06:24.688Z,93.77
2023-03-19T20:08:27.124Z,93.36
2023-03-19T20:10:30.709Z,94.29
2023-03-19T20:12:33.311Z,94.10
2023-03-19T20:14:34.798Z,94.68
2023-03-19T20:16:36.270Z,94.75
2023-03-19T20:18:43.323Z,94.99
2023-03-19T20:20:45.075Z,95.62
2023-03-19T20:22:47.591Z,95.72
2023-03-19T20:24:51.253Z,96.43
2023-03-19T20:26:53.160Z,96.43
2023-03-19T20:28:54.652Z,96.42
2023-03-19T20:30:56.441Z,96.49
2023-03-19T20:32:59.674Z,96.55
2023-03-19T20:35:01.478Z,96.35
2023-03-19T20:37:02.934Z,96.28
2023-03-19T20:39:04.612Z,96.54
2023-03-19T20:41:14.853Z,96.62
2023-03-19T20:43:29.823Z,97.70
2023-03-19T20:45:37.672Z,97.96
2023-03-19T20:47:39.130Z,97.49
2023-03-19T20:49:40.612Z,98.26
2023-03-19T20:51:42.072Z,98.26
2023-03-19T20:53:43.525Z,98.83
2023-03-19T20:55:46.993Z,99.31
2023-03-19T20:57:51.181Z,99.08
2023-03-19T20:59:52.759Z,98.72
2023-03-19T21:01:56.403Z,99.02
2023-03-19T21:03:57.914Z,99.88
2023-03-19T21:06:02.705Z,99.75
2023-03-19T21:08:06.118Z,99.80
2023-03-19T21:10:21.118Z,99.96
2023-03-19T21:12:33.345Z,99.91
2023-03-19T21:14:34.830Z,99.83
2023-03-19T21:16:36.536Z,100.00
2023-03-19T21:18:38.061Z,99.25
2023-03-19T21:20:42.525Z,99.46
2023-03-19T21:22:46.359Z,99.76
2023-03-19T21:24:48.964Z,99.58
2023-03-19T21:26:50.534Z,99.77
2023-03-19T21:28:55.052Z,99.09
2023-03-19T21:30:57.766Z,99.90
2023-03-19T21:32:59.584Z,99.60
2023-03-19T21:35:01.508Z,99.23
2023-03-19T21:37:03.196Z,99.33
2023-03-19T21:39:04.668Z,98.83
2023-03-19T21:41:24.755Z,98.78
2023-03-19T21:43:57.334Z,98.52
2023-03-19T21:45:58.962Z,98.24
2023-03-19T21:48:09.489Z,97.34
2023-03-19T21:50:17.381Z,97.12
2023-03-19T21:52:21.601Z,96.77
2023-03-19T21:54:23.869Z,96.94
2023-03-19T21:56:34.897Z,96.68
2023-03-19T21:58:36.689Z,96.13
2023-03-19T22:00:38.480Z,96.31
2023-03-19T22:02:42.682Z,96.07
2023-03-19T22:04:44.469Z,95.68
2023-03-19T22:06:46.781Z,95.24
2023-03-19T22:08:48.813Z,95.13
2023-03-19T22:10:58.521Z,95.26
2023-03-19T22:13:00.248Z,94.51
2023-03-19T22:15:02.583Z,94.61
2023-03-19T22:17:05.703Z,93.88
2023-03-19T22:19:07.158Z,94.16
2023-03-19T22:21:13.966Z,94.22
2023-03-19T22:23:16.032Z,93.71
2023-03-19T22:25:18.875Z,94.04
2023-03-19T22:27:20.360Z,93.87
2023-03-19T22:29:25.371Z,94.11
2023-03-19T22:31:27.244Z,94.09
2023-03-19T22:33:28.939Z,94.10
2023-03-19T22:35:30.471Z,94.33
2023-03-19T22:37:32.172Z,93.61
2023-03-19T22:39:33.625Z,93.94
2023-03-19T22:41:37.453Z,93.86
2023-03-19T22:43:38.960Z,94.40
2023-03-19T22:45:40.522Z,94.11
2023-03-19T22:47:42.117Z,95.20
2023-03-19T22:49:44.946Z,94.94
2023-03-19T22:51:47.297Z,94.78
2023-03-19T22:53:48.866Z,95.92
2023-03-19T22:55:50.560Z,96.22
2023-03-19T22:57:52.047Z,96.55
2023-03-19T22:59:53.496Z,96.54
2023-03-19T23:01:55.788Z,97.21
2023-03-19T23:03:57.600Z,96.20
2023-03-19T23:06:05.411Z,96.70
2023-03-19T23:08:06.870Z,97.13
2023-03-19T23:10:29.147Z,96.68
2023-03-19T23:12:30.856Z,97.00
2023-03-19T23:14:32.380Z,97.89
2023-03-19T23:16:33.985Z,96.71
2023-03-19T23:18:37.056Z,97.22
2023-03-19T23:20:38.528Z,97.13
2023-03-19T23:22:40.359Z,97.17
2023-03-19T23:24:42.292Z,97.19
2023-03-19T23:26:45.877Z,97.25
2023-03-19T23:28:47.407Z,98.09
2023-03-19T23:30:51.326Z,97.16
2023-03-19T23:32:53.217Z,96.86
2023-03-19T23:35:00.595Z,97.23
2023-03-19T23:37:02.826Z,97.00
2023-03-19T23:39:05.068Z,95.96
2023-03-19T23:41:17.807Z,95.67
2023-03-19T23:43:22.685Z,95.66
2023-03-19T23:45:39.941Z,95.43
2023-03-19T23:47:41.776Z,95.72
2023-03-19T23:49:43.293Z,95.47
2023-03-19T23:51:44.752Z,95.03
2023-03-19T23:53:46.849Z,94.68
2023-03-19T23:55:51.267Z,94.04
2023-03-19T23:57:53.340Z,94.20
2023-03-19T23:59:55.102Z,93.99
